Time;durP1;ratioP1;P1;durP2;ratioP2;P2;SDS_P1;SDS_P2;PMS_P1;PMS_P2;Temp;Humidity;BMP_temperature;BMP_pressure;BME280_temperature;BME280_humidity;BME280_pressure;Samples;Min_cycle;Max_cycle;Signal;HPM_P1;HPM_P2
2023/01/30 00:01:31;;;;;;;77.55;35.40;;;3.70;99.90;;;1.97;100.00;100324.91;4904355;28;20125;-79
2023/01/30 00:04:06;;;;;;;74.60;35.47;;;3.70;99.90;;;1.98;100.00;100304.09;4933580;28;20039;-81
2023/01/30 00:06:32;;;;;;;72.97;33.92;;;3.70;99.90;;;1.95;100.00;100291.19;4974751;28;20082;-79
2023/01/30 00:08:58;;;;;;;76.25;36.55;;;3.70;99.90;;;1.94;100.00;100275.63;4929394;28;20054;-82
2023/01/30 00:11:25;;;;;;;72.10;36.05;;;3.70;99.90;;;1.95;100.00;100278.19;4833648;28;20031;-81
2023/01/30 00:13:56;;;;;;;63.65;30.63;;;3.70;99.90;;;1.95;100.00;100275.59;4878530;28;20091;-80
2023/01/30 00:16:22;;;;;;;65.80;31.80;;;3.70;99.90;;;1.98;100.00;100277.28;4910927;28;20074;-81
2023/01/30 00:18:48;;;;;;;68.65;33.42;;;3.70;99.90;;;1.98;100.00;100261.69;4896969;28;20043;-82
2023/01/30 00:21:14;;;;;;;71.90;34.80;;;3.70;99.90;;;2.00;100.00;100246.94;4886381;28;20067;-79
2023/01/30 00:23:40;;;;;;;73.43;34.72;;;3.70;99.90;;;2.00;100.00;100253.00;4899906;29;20091;-82
2023/01/30 00:26:12;;;;;;;64.95;30.85;;;3.70;99.90;;;2.02;100.00;100245.19;4876320;28;20584;-80
2023/01/30 00:28:38;;;;;;;76.57;35.72;;;3.70;99.90;;;2.03;100.00;100231.28;4917985;28;20110;-80
2023/01/30 00:31:05;;;;;;;68.38;32.83;;;3.80;99.90;;;2.09;100.00;100218.19;4915937;28;20122;-81
2023/01/30 00:33:31;;;;;;;71.72;32.88;;;3.80;99.90;;;2.07;100.00;100219.97;4912746;28;20046;-80
2023/01/30 00:36:03;;;;;;;72.40;33.67;;;3.80;99.90;;;2.08;100.00;100219.09;4902165;28;20055;-81
2023/01/30 00:38:28;;;;;;;66.20;31.20;;;3.80;99.90;;;2.11;100.00;100215.56;4863521;29;20028;-80
2023/01/30 00:40:54;;;;;;;69.25;34.53;;;3.80;99.90;;;2.10;100.00;100206.94;4872211;29;20048;-79
2023/01/30 00:49:13;;;;;;;80.63;37.75;;;3.80;99.90;;;2.12;100.00;100204.31;4942288;28;20029;-80
2023/01/30 00:51:38;;;;;;;76.90;35.83;;;3.80;99.90;;;2.13;100.00;100212.06;4912195;28;20128;-80
2023/01/30 00:54:04;;;;;;;79.53;36.35;;;3.80;99.90;;;2.15;100.00;100201.66;4978454;23;20457;-79
2023/01/30 00:56:34;;;;;;;78.50;36.38;;;3.90;99.90;;;2.13;100.00;100206.88;4922856;28;20030;-81
2023/01/30 00:59:00;;;;;;;79.05;37.53;;;3.90;99.90;;;2.18;100.00;100204.16;4929625;28;20081;-81
2023/01/30 01:01:26;;;;;;;78.43;36.97;;;3.90;99.90;;;2.17;100.00;100195.53;4902424;28;20038;-78
2023/01/30 01:03:52;;;;;;;76.63;37.10;;;3.90;99.90;;;2.21;100.00;100197.19;4927973;28;20050;-80
2023/01/30 01:06:18;;;;;;;82.68;36.72;;;3.90;99.90;;;2.25;100.00;100197.97;4913771;28;20054;-79
2023/01/30 01:08:43;;;;;;;75.82;35.90;;;3.90;99.90;;;2.23;100.00;100176.38;4917777;28;20042;-79
2023/01/30 01:11:23;;;;;;;73.60;34.53;;;3.90;99.90;;;2.26;100.00;100158.09;4894916;28;20070;-81
2023/01/30 01:13:56;;;;;;;76.22;37.50;;;3.90;99.90;;;2.29;100.00;100151.97;4915960;28;20067;-81
2023/01/30 01:16:23;;;;;;;74.40;35.35;;;3.90;99.90;;;2.25;100.00;100141.69;4917367;28;20062;-80
2023/01/30 01:18:50;;;;;;;82.13;36.05;;;4.00;99.90;;;2.30;100.00;100130.34;4936324;28;20507;-81
2023/01/30 01:21:17;;;;;;;81.63;36.58;;;4.00;99.90;;;2.30;100.00;100114.75;4959817;28;20520;-79
2023/01/30 01:23:50;;;;;;;72.32;36.17;;;4.00;99.90;;;2.34;100.00;100103.41;4876864;28;20462;-80
2023/01/30 01:26:16;;;;;;;79.53;34.92;;;4.00;99.90;;;2.32;100.00;100090.44;4914669;28;20733;-79
2023/01/30 01:28:42;;;;;;;84.15;38.00;;;4.00;99.90;;;2.33;100.00;100086.94;4928032;28;20034;-80
2023/01/30 01:31:13;;;;;;;77.95;37.80;;;4.00;99.90;;;2.37;100.00;100079.94;4921486;28;20587;-80
2023/01/30 01:33:39;;;;;;;78.78;37.25;;;4.00;99.90;;;2.39;100.00;100080.75;4918066;28;20139;-81
2023/01/30 01:36:06;;;;;;;70.43;33.60;;;4.10;99.90;;;2.39;100.00;100063.41;4911124;28;20105;-79
2023/01/30 01:38:32;;;;;;;81.78;36.22;;;4.10;99.90;;;2.39;100.00;100052.16;4943577;28;21642;-79
2023/01/30 01:41:01;;;;;;;75.15;37.08;;;4.10;99.90;;;2.43;100.00;100051.22;4896784;28;20182;-81
2023/01/30 01:43:57;;;;;;;65.90;33.10;;;4.10;99.90;;;2.38;100.00;100056.53;4909080;28;20042;-79
2023/01/30 01:46:47;;;;;;;70.65;33.78;;;4.10;99.90;;;2.37;100.00;100053.94;4945142;28;20023;-80
2023/01/30 01:49:36;;;;;;;70.13;34.78;;;4.10;99.90;;;2.39;100.00;100053.00;4907369;28;20051;-80
2023/01/30 01:52:12;;;;;;;73.25;35.80;;;4.10;99.90;;;2.44;100.00;100079.75;4938083;28;20049;-79
2023/01/30 01:55:00;;;;;;;75.05;36.85;;;4.10;99.90;;;2.41;100.00;100060.78;4930075;28;20041;-80
2023/01/30 01:57:55;;;;;;;75.70;37.50;;;4.10;99.90;;;2.43;100.00;100048.59;4886939;28;20115;-79
2023/01/30 02:00:22;;;;;;;78.25;36.42;;;4.10;99.90;;;2.45;100.00;100036.44;4907990;28;20154;-80
2023/01/30 02:03:04;;;;;;;81.78;40.53;;;4.10;99.90;;;2.48;100.00;100036.34;4890851;28;20114;-82
2023/01/30 02:05:41;;;;;;;86.78;39.22;;;4.10;99.90;;;2.50;100.00;100031.97;4922650;28;20445;-80
2023/01/30 02:08:36;;;;;;;75.68;39.42;;;4.20;99.90;;;2.51;100.00;100031.09;4912306;28;20403;-80
2023/01/30 02:11:16;;;;;;;73.63;36.72;;;4.10;99.90;;;2.51;100.00;100012.06;4903249;28;20040;-79
2023/01/30 02:13:46;;;;;;;76.10;37.88;;;4.20;99.90;;;2.52;100.00;100008.56;4874545;28;20502;-79
2023/01/30 02:16:12;;;;;;;71.25;35.63;;;4.20;99.90;;;2.52;100.00;99995.56;4909132;28;20035;-80
2023/01/30 02:18:47;;;;;;;72.88;35.22;;;4.20;99.90;;;2.55;100.00;100001.53;4900107;28;20090;-79
2023/01/30 02:21:31;;;;;;;72.10;36.03;;;4.20;99.90;;;2.57;100.00;99996.28;4928890;28;20459;-80
2023/01/30 02:24:28;;;;;;;77.78;36.72;;;4.30;99.90;;;2.62;100.00;99987.47;4937118;28;20414;-80
2023/01/30 02:27:16;;;;;;;62.53;31.55;;;4.30;99.90;;;2.59;100.00;99977.19;4928515;28;20476;-81
2023/01/30 02:29:58;;;;;;;67.70;34.47;;;4.30;99.90;;;2.61;100.00;99975.41;4946055;28;20028;-80
2023/01/30 02:32:54;;;;;;;69.15;32.78;;;4.30;99.90;;;2.61;100.00;99966.72;4928214;28;20110;-80
2023/01/30 02:35:32;;;;;;;69.30;34.63;;;4.30;99.90;;;2.65;100.00;99970.94;4929534;28;20069;-81
2023/01/30 02:38:12;;;;;;;69.40;35.65;;;4.30;99.90;;;2.67;100.00;99953.56;4922724;28;20325;-80
2023/01/30 02:41:23;;;;;;;69.65;33.75;;;4.30;99.90;;;2.67;100.00;99958.78;4896362;28;20129;-79
2023/01/30 02:44:05;;;;;;;65.70;32.33;;;4.40;99.90;;;2.69;100.00;99941.38;4901732;28;20593;-81
2023/01/30 02:47:12;;;;;;;60.90;32.83;;;4.40;99.90;;;2.72;100.00;99950.84;4964250;28;20062;-80
2023/01/30 02:49:54;;;;;;;62.83;31.55;;;4.40;99.90;;;2.72;100.00;99950.84;4924969;28;20050;-81
2023/01/30 02:52:22;;;;;;;75.15;34.75;;;4.40;99.90;;;2.74;100.00;99944.69;4899140;28;20035;-81
2023/01/30 02:54:47;;;;;;;70.97;35.58;;;4.40;99.90;;;2.77;100.00;99938.59;4944870;28;20098;-79
2023/01/30 02:57:26;;;;;;;73.22;33.35;;;4.40;99.90;;;2.78;100.00;99925.53;4927843;28;20503;-81
2023/01/30 03:00:03;;;;;;;74.80;35.28;;;4.40;99.90;;;2.82;100.00;99921.09;4938456;28;20039;-80
2023/01/30 03:03:05;;;;;;;75.38;35.58;;;4.50;99.90;;;2.81;100.00;99922.03;4913989;28;20646;-79
2023/01/30 03:06:02;;;;;;;82.93;39.25;;;4.50;99.90;;;2.80;100.00;99908.13;4905850;28;20054;-81
2023/01/30 03:08:59;;;;;;;79.38;36.88;;;4.40;99.90;;;2.78;100.00;99903.88;4889396;28;20093;-80
2023/01/30 03:11:46;;;;;;;79.45;37.33;;;4.40;99.90;;;2.76;100.00;99892.69;4958067;28;20079;-80
2023/01/30 03:14:58;;;;;;;82.47;38.60;;;4.40;99.90;;;2.73;100.00;99883.22;4924850;28;20153;-82
2023/01/30 03:17:27;;;;;;;86.53;36.25;;;4.40;99.90;;;2.76;100.00;99884.88;4940226;28;20046;-80
2023/01/30 03:19:54;;;;;;;81.32;36.45;;;4.40;99.90;;;2.75;100.00;99875.38;4928632;28;20755;-81
2023/01/30 03:22:21;;;;;;;82.63;37.28;;;4.40;99.90;;;2.75;100.00;99862.38;4935582;28;20093;-80
2023/01/30 03:25:07;;;;;;;90.13;38.67;;;4.40;99.90;;;2.72;100.00;99870.25;4935342;28;20113;-81
2023/01/30 03:27:34;;;;;;;81.72;34.45;;;4.40;99.90;;;2.76;100.00;99866.69;4930703;28;20584;-80
2023/01/30 03:30:15;;;;;;;77.63;34.60;;;4.40;99.90;;;2.75;100.00;99855.44;4890030;28;20047;-82
2023/01/30 03:32:43;;;;;;;84.78;37.33;;;4.40;99.90;;;2.77;100.00;99842.41;4853292;28;20047;-82
2023/01/30 03:35:16;;;;;;;82.93;36.22;;;4.40;99.90;;;2.84;100.00;99836.13;4884065;28;20060;-83
2023/01/30 03:37:44;;;;;;;88.57;37.25;;;4.50;99.90;;;2.84;100.00;99836.13;4928805;28;20091;-82
2023/01/30 03:40:12;;;;;;;85.82;36.88;;;4.50;99.90;;;2.88;100.00;99827.34;4912229;28;20063;-81
2023/01/30 03:42:43;;;;;;;83.53;35.53;;;4.50;99.90;;;2.89;100.00;99836.81;4904899;28;20108;-80
2023/01/30 03:45:12;;;;;;;82.90;36.08;;;4.50;99.90;;;2.87;100.00;99836.00;4925262;28;20084;-82
2023/01/30 03:47:38;;;;;;;87.60;36.15;;;4.50;99.90;;;2.91;100.00;99837.63;4941521;28;20542;-79
2023/01/30 03:50:04;;;;;;;78.05;35.30;;;4.50;99.90;;;2.90;100.00;99830.75;4902494;28;20065;-82
2023/01/30 03:52:36;;;;;;;86.43;35.60;;;4.50;99.90;;;2.93;100.00;99824.59;4925139;28;20040;-81
2023/01/30 03:55:05;;;;;;;68.53;31.80;;;4.60;99.90;;;2.91;100.00;99814.22;4889325;28;20052;-81
2023/01/30 03:57:31;;;;;;;77.95;32.78;;;4.60;99.90;;;2.96;100.00;99811.50;4874463;28;20056;-82
2023/01/30 03:59:57;;;;;;;78.57;33.92;;;4.60;99.90;;;2.98;100.00;99810.56;4924828;28;20131;-81
2023/01/30 04:02:27;;;;;;;67.45;31.15;;;4.60;99.90;;;3.01;100.00;99804.41;4921807;28;20081;-81
2023/01/30 04:04:53;;;;;;;64.47;29.70;;;4.60;99.90;;;3.03;100.00;99795.66;4917771;28;20035;-81
2023/01/30 04:07:19;;;;;;;69.28;31.17;;;4.70;99.90;;;3.08;100.00;99798.97;4915497;28;20122;-81
2023/01/30 04:09:45;;;;;;;66.93;31.02;;;4.70;99.90;;;3.11;100.00;99800.66;4896118;28;20502;-82
2023/01/30 04:12:13;;;;;;;56.47;25.40;;;4.70;99.90;;;3.12;100.00;99783.28;4946139;28;20514;-80
2023/01/30 04:14:43;;;;;;;59.58;24.88;;;4.70;99.90;;;3.13;100.00;99791.00;4943338;23;20046;-80
2023/01/30 04:17:15;;;;;;;61.55;27.77;;;4.70;99.90;;;3.16;100.00;99784.91;4954902;28;20076;-81
2023/01/30 04:19:48;;;;;;;65.07;27.85;;;;;;;3.18;100.00;99785.69;4915650;28;20042;-80
2023/01/30 04:22:14;;;;;;;55.92;27.15;;;4.80;99.90;;;3.23;100.00;99778.59;4913133;28;20065;-79
2023/01/30 04:24:42;;;;;;;59.70;26.98;;;4.90;99.90;;;3.23;100.00;99783.78;4965537;28;20038;-82
2023/01/30 04:27:09;;;;;;;63.40;28.27;;;4.80;99.90;;;3.25;100.00;99771.59;4918004;28;20038;-80
2023/01/30 04:29:43;;;;;;;53.97;25.13;;;4.90;99.90;;;3.27;100.00;99769.78;4918162;28;20039;-82
2023/01/30 04:32:12;;;;;;;54.72;24.67;;;4.90;99.90;;;3.28;100.00;99767.16;4937334;28;20049;-82
2023/01/30 04:34:46;;;;;;;52.05;24.77;;;4.90;99.90;;;3.31;100.00;99767.94;4936270;28;20036;-81
2023/01/30 04:37:12;;;;;;;49.53;22.65;;;4.90;99.90;;;3.29;100.00;99757.59;4938040;28;20136;-81
2023/01/30 04:39:38;;;;;;;50.40;23.00;;;4.90;99.90;;;3.34;100.00;99755.69;4943818;28;20500;-80
2023/01/30 04:42:04;;;;;;;45.33;22.33;;;5.00;99.90;;;3.37;100.00;99753.00;4939011;28;20101;-80
2023/01/30 04:44:55;;;;;;;41.83;20.83;;;5.00;99.90;;;3.37;100.00;99755.59;4908548;28;20046;-82
2023/01/30 04:47:20;;;;;;;40.42;19.02;;;5.00;99.90;;;3.38;100.00;99749.47;4921683;28;20137;-82
2023/01/30 04:50:15;;;;;;;38.58;18.05;;;5.00;99.90;;;3.42;100.00;99756.28;4914819;28;20129;-80
2023/01/30 04:52:43;;;;;;;36.33;17.45;;;5.00;99.90;;;3.42;100.00;99751.06;4913346;28;20065;-81
2023/01/30 04:55:17;;;;;;;32.33;17.05;;;5.10;99.90;;;3.44;100.00;99741.47;4934201;28;20049;-81
2023/01/30 04:57:42;;;;;;;31.55;17.45;;;5.10;99.90;;;3.46;100.00;99751.84;4942463;28;20482;-81
2023/01/30 05:00:12;;;;;;;27.20;14.27;;;5.10;99.90;;;3.45;100.00;99732.75;4934883;28;20041;-81
2023/01/30 05:02:47;;;;;;;32.10;15.45;;;5.10;99.90;;;3.52;100.00;99740.34;4929906;28;21475;-82
2023/01/30 05:05:13;;;;;;;31.25;16.00;;;;;;;3.52;100.00;99733.41;4903315;28;20117;-80
2023/01/30 05:07:49;;;;;;;;;;;;;;;;;;;;;
2023/01/30 05:10:15;;;;;;;32.55;16.65;;;5.10;99.90;;;3.54;100.00;99721.16;4944327;28;20444;-82
2023/01/30 05:12:41;;;;;;;31.63;15.90;;;5.20;99.90;;;3.57;100.00;99726.28;4917838;28;20087;-82
2023/01/30 05:15:08;;;;;;;28.48;15.73;;;5.10;99.90;;;3.59;100.00;99705.44;4913550;28;20527;-82
2023/01/30 05:17:43;;;;;;;31.27;16.10;;;5.20;99.90;;;3.58;100.00;99706.31;4926642;28;20053;-80
2023/01/30 05:20:13;;;;;;;28.45;15.45;;;5.20;99.90;;;3.62;100.00;99721.78;4894720;28;20130;-82
2023/01/30 05:22:44;;;;;;;30.13;15.07;;;5.20;99.90;;;3.63;100.00;99709.63;4906769;28;20605;-82
2023/01/30 05:25:10;;;;;;;29.67;15.45;;;5.20;99.90;;;3.65;100.00;99694.78;4977196;28;20460;-82
2023/01/30 05:27:36;;;;;;;29.15;14.90;;;5.30;99.90;;;3.67;100.00;99672.16;4934484;28;20058;-80
2023/01/30 05:30:04;;;;;;;27.27;13.85;;;5.30;99.90;;;3.68;100.00;99685.13;4960442;28;20057;-80
2023/01/30 05:32:35;;;;;;;25.98;13.93;;;5.30;99.90;;;3.72;100.00;99679.81;4920423;28;20033;-82
2023/01/30 05:35:01;;;;;;;26.67;14.70;;;5.30;99.90;;;3.75;100.00;99674.50;4939648;28;20049;-82
2023/01/30 05:37:26;;;;;;;24.23;13.40;;;5.30;99.90;;;3.75;100.00;99674.50;4932094;28;20098;-79
2023/01/30 05:39:55;;;;;;;25.98;13.80;;;5.30;99.90;;;3.77;100.00;99683.09;4906011;28;20066;-79
2023/01/30 05:42:30;;;;;;;24.73;13.85;;;5.30;99.90;;;3.78;100.00;99706.50;4871853;28;20058;-81
2023/01/30 05:44:55;;;;;;;22.88;13.18;;;5.40;99.90;;;3.82;100.00;99699.41;4985792;28;20042;-79
2023/01/30 05:47:21;;;;;;;22.90;13.88;;;5.40;99.90;;;3.82;100.00;99702.00;4972461;28;20034;-81
2023/01/30 05:49:47;;;;;;;22.85;13.55;;;5.40;99.90;;;3.83;100.00;99693.31;4922023;28;20777;-80
2023/01/30 05:52:12;;;;;;;25.45;13.82;;;5.40;99.90;;;3.88;100.00;99696.59;4942835;28;20153;-81
2023/01/30 05:54:47;;;;;;;25.75;14.10;;;5.40;99.90;;;3.88;100.00;99696.59;4944473;28;20173;-81
2023/01/30 05:57:13;;;;;;;26.55;13.63;;;5.40;99.90;;;3.83;100.00;99688.09;4929893;28;20058;-82
2023/01/30 05:59:38;;;;;;;24.23;14.00;;;5.40;99.90;;;3.87;100.00;99672.31;4947696;28;20045;-82
2023/01/30 06:02:04;;;;;;;20.90;13.13;;;5.50;99.90;;;3.86;100.00;99675.78;4942078;28;20069;-79
2023/01/30 06:04:37;;;;;;;24.85;13.85;;;5.50;99.90;;;3.88;100.00;99680.97;4946920;28;20492;-81
2023/01/30 06:07:03;;;;;;;26.40;14.55;;;5.40;99.90;;;3.86;100.00;99680.16;4942639;28;20074;-81
2023/01/30 06:09:29;;;;;;;25.00;14.43;;;5.40;99.90;;;3.84;100.00;99682.81;4918480;28;20062;-80
2023/01/30 06:11:54;;;;;;;25.75;14.18;;;5.40;99.90;;;3.84;100.00;99679.38;4954335;28;20045;-81
2023/01/30 06:14:29;;;;;;;24.42;14.30;;;5.40;99.90;;;3.88;100.00;99686.16;4928972;28;20038;-80
2023/01/30 06:16:55;;;;;;;29.98;14.82;;;5.40;99.90;;;3.90;100.00;99695.63;4919099;28;20042;-80
2023/01/30 06:19:21;;;;;;;27.15;15.35;;;5.40;99.90;;;3.94;100.00;99695.53;4966252;28;20029;-82
2023/01/30 06:21:47;;;;;;;27.08;14.95;;;5.50;99.90;;;3.95;100.00;99702.41;4923037;28;20030;-80
2023/01/30 06:24:13;;;;;;;22.73;14.18;;;5.50;99.90;;;3.93;100.00;99697.28;4947150;28;20038;-80
2023/01/30 06:26:43;;;;;;;22.65;13.93;;;5.70;99.90;;;3.94;100.00;99701.56;4943662;28;20041;-80
2023/01/30 06:29:09;;;;;;;24.25;13.88;;;5.50;99.90;;;3.95;100.00;99692.84;4927494;28;20059;-81
2023/01/30 06:31:35;;;;;;;26.85;14.23;;;5.50;99.90;;;3.95;100.00;99690.25;4927734;28;20035;-80
2023/01/30 06:34:03;;;;;;;27.00;13.52;;;5.50;99.90;;;3.97;100.00;99693.63;4938060;28;20078;-81
2023/01/30 06:36:29;;;;;;;23.90;12.55;;;5.50;99.90;;;3.99;100.00;99698.81;4920763;28;20050;-80
2023/01/30 06:38:59;;;;;;;22.00;13.00;;;5.50;99.90;;;4.03;100.00;99706.44;4915780;28;20056;-81
2023/01/30 06:41:25;;;;;;;23.60;12.68;;;5.50;99.90;;;4.01;100.00;99704.81;4935857;28;20026;-79
2023/01/30 06:43:51;;;;;;;24.90;13.27;;;5.60;99.90;;;4.04;100.00;99713.38;4934481;28;20251;-81
2023/01/30 06:46:16;;;;;;;20.33;12.05;;;5.60;99.90;;;4.06;100.00;99723.72;4870379;28;20046;-79
2023/01/30 06:48:42;;;;;;;22.63;12.15;;;5.60;99.90;;;4.10;100.00;99717.50;4935157;28;20093;-80
2023/01/30 06:51:08;;;;;;;20.23;11.65;;;5.60;99.90;;;4.12;100.00;99718.28;4927909;28;20041;-80
2023/01/30 06:53:43;;;;;;;24.77;11.90;;;5.60;99.90;;;4.16;100.00;99701.66;4940340;28;20752;-81
2023/01/30 06:56:09;;;;;;;24.93;11.33;;;5.60;99.90;;;4.17;100.00;99715.50;4941240;28;20158;-81
2023/01/30 06:58:35;;;;;;;23.65;11.38;;;5.60;99.90;;;4.15;100.00;99709.50;4904942;28;20050;-80
2023/01/30 07:01:01;;;;;;;25.65;12.02;;;5.70;99.90;;;4.17;100.00;99719.00;4951846;28;20384;-80
2023/01/30 07:03:36;;;;;;;18.00;9.45;;;5.70;99.90;;;4.10;100.00;99707.94;4927728;28;20623;-81
2023/01/30 07:06:02;;;;;;;22.33;10.23;;;5.60;99.90;;;4.12;100.00;99718.28;4916321;28;20083;-81
2023/01/30 07:08:27;;;;;;;19.48;10.60;;;5.60;99.90;;;4.07;100.00;99718.47;4926033;28;20054;-80
2023/01/30 07:10:53;;;;;;;21.90;10.15;;;5.60;99.90;;;4.05;100.00;99719.44;4939757;28;20159;-80
2023/01/30 07:13:21;;;;;;;24.73;10.75;;;5.60;99.90;;;4.05;100.00;99716.81;4959945;28;20056;-80
2023/01/30 07:15:47;;;;;;;21.73;10.10;;;5.60;99.90;;;4.09;100.00;99721.03;4936439;28;20047;-78
2023/01/30 07:18:13;;;;;;;24.38;10.57;;;5.60;99.90;;;4.07;100.00;99708.03;4903381;28;20039;-79
2023/01/30 07:20:41;;;;;;;22.65;9.35;;;5.60;99.90;;;4.11;100.00;99717.44;4954462;28;20030;-80
2023/01/30 07:23:13;;;;;;;25.63;9.48;;;5.60;99.90;;;4.13;100.00;99712.19;4953530;28;20049;-79
2023/01/30 07:25:41;;;;;;;20.15;9.15;;;5.60;99.90;;;4.13;100.00;99727.00;4956189;28;20135;-80
2023/01/30 07:28:09;;;;;;;22.90;8.75;;;5.60;99.90;;;4.14;100.00;99718.25;4914234;28;20042;-80
2023/01/30 07:30:35;;;;;;;24.02;8.00;;;5.70;99.90;;;4.15;100.00;99720.81;4927061;28;20057;-81
2023/01/30 07:33:11;;;;;;;18.40;6.90;;;5.70;99.90;;;4.16;100.00;99717.28;4966479;28;20060;-81
2023/01/30 07:35:37;;;;;;;;;;;5.70;99.90;;;4.12;100.00;99715.69;4950268;28;20539;-80
2023/01/30 07:38:04;;;;;;;16.83;6.00;;;5.70;99.90;;;4.14;100.00;99713.88;4943645;28;20405;-80
2023/01/30 07:40:38;;;;;;;17.70;6.40;;;5.70;99.90;;;4.10;100.00;99713.16;4935499;28;20029;-80
2023/01/30 07:43:07;;;;;;;16.67;5.22;;;5.60;99.90;;;4.10;100.00;99710.56;4906937;28;20065;-79
2023/01/30 07:45:45;;;;;;;28.40;5.95;;;5.60;99.90;;;4.13;100.00;99708.75;4923841;28;20042;-81
2023/01/30 07:48:20;;;;;;;26.98;4.93;;;5.70;99.90;;;4.18;100.00;99704.22;4929674;28;20070;-81
2023/01/30 07:50:46;;;;;;;18.73;4.40;;;5.70;99.90;;;4.31;100.00;99697.63;4921404;28;20113;-79
2023/01/30 07:53:17;;;;;;;21.25;4.13;;;5.80;99.90;;;4.84;100.00;99709.53;4933094;28;20118;-80
2023/01/30 07:55:47;;;;;;;25.52;4.65;;;5.90;99.90;;;4.80;100.00;99723.59;4954588;28;20085;-79
2023/01/30 07:58:15;;;;;;;22.55;3.97;;;5.90;99.90;;;4.71;100.00;99714.38;4931602;28;20041;-80
2023/01/30 08:00:41;;;;;;;25.67;4.03;;;6.00;99.90;;;4.68;100.00;99714.47;4968462;28;20042;-81
2023/01/30 08:03:14;;;;;;;27.30;4.32;;;6.10;99.90;;;4.71;100.00;99710.00;4910470;28;20038;-80
2023/01/30 08:05:43;;;;;;;14.63;2.97;;;6.10;99.90;;;4.81;100.00;99709.66;4936303;28;20092;-80
2023/01/30 08:08:08;;;;;;;27.27;3.47;;;6.20;99.90;;;4.97;100.00;99718.59;4964783;28;20097;-79
2023/01/30 08:10:34;;;;;;;22.92;3.33;;;6.30;99.90;;;5.15;100.00;99719.59;4929546;28;20439;-80
2023/01/30 08:13:00;;;;;;;26.95;3.15;;;6.40;99.90;;;5.21;100.00;99714.13;4944939;28;20030;-81
2023/01/30 08:15:34;;;;;;;18.10;2.75;;;6.40;99.90;;;5.08;100.00;99712.94;4959145;28;20057;-79
2023/01/30 08:18:00;;;;;;;29.30;3.20;;;6.40;99.90;;;4.90;100.00;99706.66;4933075;28;20450;-79
2023/01/30 08:20:27;;;;;;;25.05;3.00;;;6.40;99.90;;;4.85;100.00;99709.47;4924262;28;20042;-80
2023/01/30 08:23:00;;;;;;;18.98;2.78;;;6.30;99.90;;;4.89;100.00;99704.97;4932305;28;20038;-80
2023/01/30 08:25:27;;;;;;;21.13;2.85;;;6.40;99.90;;;4.97;100.00;99709.88;4900786;28;20057;-80
2023/01/30 08:27:53;;;;;;;25.90;3.05;;;6.40;99.90;;;4.97;99.92;99715.97;4964039;28;20657;-79
2023/01/30 08:30:19;;;;;;;18.88;2.83;;;6.30;99.90;;;4.97;98.96;99713.34;4948059;28;20033;-80
2023/01/30 08:32:50;;;;;;;25.52;3.10;;;6.40;99.90;;;5.10;98.11;99716.34;4949154;28;20066;-80
2023/01/30 08:35:16;;;;;;;16.25;2.25;;;6.50;99.90;;;5.31;97.76;99719.81;4940777;28;20051;-80
2023/01/30 08:37:44;;;;;;;22.83;2.90;;;6.50;99.90;;;5.43;97.12;99716.69;4920587;28;20041;-80
2023/01/30 08:40:11;;;;;;;20.35;2.50;;;6.60;99.90;;;5.28;96.60;99709.50;4917036;28;20045;-80
2023/01/30 08:42:37;;;;;;;13.55;1.77;;;6.60;99.90;;;5.07;95.80;99706.84;4924334;28;20053;-80
2023/01/30 08:45:08;;;;;;;16.95;2.15;;;6.40;99.90;;;4.83;94.99;99706.06;4925616;28;20068;-81
2023/01/30 08:47:34;;;;;;;13.90;2.33;;;6.20;99.90;;;4.56;94.16;99713.22;4972456;28;20701;-79
2023/01/30 08:50:01;;;;;;;19.88;2.60;;;6.00;99.90;;;4.37;94.23;99699.16;4913863;28;20372;-78
2023/01/30 08:52:26;;;;;;;15.43;1.80;;;5.90;99.90;;;4.37;93.79;99707.00;4915529;28;20042;-79
2023/01/30 08:54:52;;;;;;;18.40;2.45;;;5.90;99.90;;;4.47;94.21;99703.09;4942193;28;20089;-81
2023/01/30 08:57:27;;;;;;;1.50;0.60;;;5.90;99.90;;;4.59;94.65;99700.03;4952375;28;20109;-80
2023/01/30 08:59:53;;;;;;;25.88;2.90;;;6.00;99.90;;;4.64;94.53;99698.09;4966252;28;20959;-78
2023/01/30 09:02:18;;;;;;;14.85;2.08;;;6.00;99.90;;;4.66;94.51;99705.88;4960828;28;20034;-79
2023/01/30 09:04:56;;;;;;;16.38;2.75;;;6.00;99.90;;;4.65;94.63;99699.81;4947099;28;20106;-80
2023/01/30 09:07:22;;;;;;;20.95;2.30;;;6.00;99.90;;;4.57;94.03;99703.63;4915487;28;20129;-79
2023/01/30 09:09:48;;;;;;;12.05;1.70;;;6.00;99.90;;;4.57;94.08;99703.63;4926852;28;21032;-79
2023/01/30 09:12:18;;;;;;;20.92;2.72;;;6.00;99.90;;;4.69;94.05;99709.22;4912843;28;20178;-81
2023/01/30 09:14:44;;;;;;;23.88;2.35;;;6.10;99.90;;;4.90;94.13;99710.16;4961996;28;20111;-79
2023/01/30 09:17:13;;;;;;;17.30;2.28;;;6.30;99.90;;;5.16;93.95;99725.66;4935922;28;20041;-79
2023/01/30 09:19:48;;;;;;;15.93;2.45;;;6.50;99.90;;;5.50;93.16;99736.41;4971063;28;20121;-79
2023/01/30 09:22:14;;;;;;;14.75;1.98;;;6.70;99.90;;;6.01;92.02;99736.94;4977352;28;20037;-79
2023/01/30 09:24:40;;;;;;;12.60;1.75;;;7.10;99.90;;;6.39;90.99;99741.38;4926360;28;20042;-79
2023/01/30 09:27:06;;;;;;;23.05;2.17;;;7.30;99.90;;;6.22;90.49;99739.50;4949797;28;20132;-80
2023/01/30 09:29:40;;;;;;;13.07;1.70;;;7.30;99.90;;;5.78;90.00;99739.63;4977356;28;20873;-80
2023/01/30 09:32:12;;;;;;;19.20;2.17;;;7.10;99.90;;;5.36;90.73;99741.38;4931961;28;20050;-79
2023/01/30 09:34:43;;;;;;;18.13;2.10;;;6.80;99.90;;;5.08;92.43;99737.25;4952935;28;20061;-80
2023/01/30 09:37:09;;;;;;;18.30;1.92;;;6.60;99.90;;;4.72;94.03;99742.16;4963630;28;20057;-80
2023/01/30 09:39:38;;;;;;;16.88;2.22;;;6.30;99.90;;;4.40;95.25;99738.13;4970604;28;20025;-80
2023/01/30 09:42:27;;;;;;;21.48;2.05;;;6.10;99.90;;;4.29;96.28;99746.34;4965887;28;20070;-81
2023/01/30 09:45:20;;;;;;;15.45;1.52;;;5.90;99.90;;;4.07;98.06;99741.91;5007432;28;20050;-81
2023/01/30 09:48:22;;;;;;;12.65;2.05;;;5.80;99.90;;;3.92;99.19;99742.47;4979215;28;20044;-81
2023/01/30 09:51:14;;;;;;;6.55;0.65;;;5.60;99.90;;;3.75;99.78;99740.44;4967513;28;20080;-80
2023/01/30 09:53:51;;;;;;;13.50;1.67;;;5.30;99.90;;;3.56;100.00;99737.59;4964640;28;20030;-81
2023/01/30 09:56:22;;;;;;;6.38;1.15;;;5.30;99.90;;;3.50;100.00;99719.59;4950683;28;20049;-82
2023/01/30 09:59:05;;;;;;;;;;;;;;;;;;;;;
2023/01/30 10:02:04;;;;;;;4.85;0.50;;;5.20;99.90;;;3.66;100.00;99701.69;4963843;28;20437;-81
2023/01/30 10:04:44;;;;;;;4.45;0.32;;;5.30;99.90;;;3.81;100.00;99703.75;4981321;28;20052;-81
2023/01/30 10:07:48;;;;;;;4.55;0.60;;;5.30;99.90;;;3.90;100.00;99706.03;4962628;28;20077;-80
2023/01/30 10:10:48;;;;;;;3.38;0.65;;;5.40;99.90;;;4.05;100.00;99720.28;4908530;28;20047;-81
2023/01/30 10:13:25;;;;;;;5.38;0.60;;;5.60;99.90;;;4.28;100.00;99713.41;4940522;28;20082;-82
2023/01/30 10:16:06;;;;;;;5.97;0.90;;;5.70;99.90;;;4.48;100.00;99726.53;4983570;28;20113;-80
2023/01/30 10:18:49;;;;;;;5.82;0.38;;;5.80;99.90;;;4.68;100.00;99727.53;4978523;28;20128;-81
2023/01/30 10:21:41;;;;;;;7.13;0.73;;;6.00;99.90;;;4.78;100.00;99730.66;4942659;28;20117;-80
2023/01/30 10:24:54;;;;;;;3.92;0.50;;;6.10;99.90;;;4.72;99.47;99724.72;4936336;23;20051;-81
2023/01/30 10:27:29;;;;;;;3.50;0.20;;;6.10;99.90;;;4.56;98.13;99726.25;4960571;28;20042;-81
2023/01/30 10:30:03;;;;;;;4.68;0.60;;;6.10;99.90;;;4.58;97.70;99721.81;4964375;28;20062;-81
2023/01/30 10:32:43;;;;;;;4.65;0.50;;;6.00;99.90;;;4.48;98.14;99725.69;4915149;28;20035;-79
2023/01/30 10:35:21;;;;;;;3.33;0.40;;;6.00;99.90;;;4.34;97.46;99720.13;4935394;28;20464;-79
2023/01/30 10:38:48;;;;;;;6.97;0.90;;;5.80;99.90;;;4.18;97.77;99705.06;4906852;28;20035;-80
2023/01/30 10:41:39;;;;;;;;;;;5.80;99.90;;;4.07;97.93;99699.38;4931600;28;20061;-81
2023/01/30 10:44:13;;;;;;;3.15;0.65;;;5.70;99.90;;;4.15;99.00;99691.28;4929957;28;19961;-81
2023/01/30 10:47:16;;;;;;;5.57;0.60;;;5.70;99.90;;;4.20;99.09;99690.22;4934905;28;20094;-80